Time;durP1;ratioP1;P1;durP2;ratioP2;P2;SDS_P1;SDS_P2;PMS_P1;PMS_P2;Temp;Humidity;BMP_temperature;BMP_pressure;BME280_temperature;BME280_humidity;BME280_pressure;Samples;Min_cycle;Max_cycle;Signal;HPM_P1;HPM_P2
2023/06/11 00:00:14;;;;;;;8.30;5.33;;;;;;;16.23;92.92;100319.44;5061648;28;20282;-56
2023/06/11 00:02:45;;;;;;;5.47;2.83;;;;;;;16.28;90.85;100318.34;5049097;28;20282;-57
2023/06/11 00:05:17;;;;;;;8.67;3.70;;;;;;;16.41;91.24;100320.50;5059764;28;20297;-58
2023/06/11 00:07:48;;;;;;;9.33;3.93;;;;;;;16.37;89.55;100318.00;5051537;28;20289;-55
2023/06/11 00:10:19;;;;;;;7.93;3.77;;;;;;;16.43;89.32;100324.78;5062232;28;20610;-57
2023/06/11 00:12:50;;;;;;;6.30;4.40;;;;;;;16.56;90.08;100333.06;5051549;28;20287;-58
2023/06/11 00:15:21;;;;;;;17.97;5.43;;;;;;;16.56;89.83;100335.72;5062272;28;20278;-58
2023/06/11 00:17:51;;;;;;;7.50;4.17;;;;;;;16.50;89.01;100338.56;5051630;28;20329;-58
2023/06/11 00:20:24;;;;;;;15.23;6.30;;;;;;;16.54;89.54;100335.75;5061765;28;20385;-57
2023/06/11 00:22:55;;;;;;;10.27;5.17;;;;;;;16.54;88.97;100348.09;5022552;28;20291;-58
2023/06/11 00:25:26;;;;;;;8.77;3.93;;;;;;;16.48;87.72;100346.56;5032995;28;20287;-59
2023/06/11 00:27:57;;;;;;;10.40;4.87;;;;;;;16.43;88.21;100343.25;5021624;28;20378;-57
2023/06/11 00:30:27;;;;;;;15.23;5.20;;;;;;;16.34;87.88;100323.38;5032957;28;20283;-56
2023/06/11 00:32:59;;;;;;;9.03;5.23;;;;;;;16.46;88.13;100343.13;5030846;28;20880;-56
2023/06/11 00:35:32;;;;;;;7.33;4.40;;;;;;;16.48;88.79;100343.06;5055187;28;20286;-57
2023/06/11 00:38:02;;;;;;;10.23;4.47;;;;;;;16.35;87.86;100335.66;5032190;28;20364;-57
2023/06/11 00:40:33;;;;;;;10.20;4.07;;;;;;;16.14;87.30;100336.47;5031411;28;21013;-57
2023/06/11 00:45:54;;;;;;;9.77;4.50;;;;;;;15.91;88.21;100351.38;4968700;28;20284;-58
2023/06/11 00:48:25;;;;;;;11.13;5.23;;;;;;;15.88;89.19;100335.69;4979017;28;20289;-56
2023/06/11 00:50:57;;;;;;;9.00;4.73;;;;;;;15.89;89.65;100310.19;4968920;28;20303;-58
2023/06/11 00:53:27;;;;;;;10.73;5.00;;;;;;;16.30;88.67;100332.34;4979146;28;20281;-57
2023/06/11 00:55:58;;;;;;;8.87;4.67;;;;;;;16.47;88.74;100333.44;4968864;28;20368;-59
2023/06/11 00:58:29;;;;;;;12.50;3.83;;;;;;;16.38;86.52;100330.25;4978727;28;20853;-58
2023/06/11 01:01:01;;;;;;;11.80;5.33;;;;;;;15.94;87.82;100260.78;4969111;28;20284;-58
2023/06/11 01:03:33;;;;;;;12.80;7.60;;;;;;;16.41;87.69;100338.97;4985722;28;20291;-58
2023/06/11 01:06:08;;;;;;;11.30;6.60;;;;;;;16.51;88.63;100345.59;4998313;28;20638;-57
2023/06/11 01:08:40;;;;;;;10.07;5.10;;;;;;;16.65;89.08;100348.53;4987055;28;20748;-56
2023/06/11 01:11:13;;;;;;;7.53;3.60;;;;;;;16.70;87.77;100340.41;4994653;28;20391;-57
2023/06/11 01:13:44;;;;;;;6.43;4.13;;;;;;;16.66;86.57;100339.69;4987844;28;20798;-57
2023/06/11 01:16:19;;;;;;;6.77;3.70;;;;;;;16.53;85.07;100349.03;4998239;28;20283;-58
2023/06/11 01:19:03;;;;;;;8.90;4.57;;;;;;;16.50;85.59;100349.13;4988094;28;20475;-55
2023/06/11 01:21:40;;;;;;;9.23;4.10;;;;;;;16.63;86.50;100354.81;4987667;28;20383;-57
2023/06/11 01:24:21;;;;;;;8.77;3.70;;;;;;;16.61;85.70;100368.03;5012618;28;20399;-58
2023/06/11 01:27:08;;;;;;;13.20;3.50;;;;;;;16.52;85.34;100363.97;4989338;28;20279;-56
2023/06/11 01:29:45;;;;;;;12.97;5.47;;;;;;;16.44;85.73;100358.16;4996351;28;20295;-56
2023/06/11 01:32:19;;;;;;;9.10;4.17;;;;;;;16.35;85.62;100351.47;5011943;28;20289;-57
2023/06/11 01:34:49;;;;;;;8.87;3.50;;;;;;;16.33;86.08;100358.56;5001918;28;20377;-57
2023/06/11 01:37:20;;;;;;;8.53;3.90;;;;;;;16.22;86.84;100363.38;5012110;28;20304;-57
2023/06/11 01:39:51;;;;;;;9.63;4.20;;;;;;;16.16;87.53;100371.53;5000090;28;20288;-58
2023/06/11 01:42:22;;;;;;;6.73;3.83;;;;;;;16.06;87.01;100370.16;5012265;28;20702;-57
2023/06/11 01:44:54;;;;;;;10.13;4.07;;;;;;;15.96;87.40;100364.38;5001347;28;20287;-57
2023/06/11 01:47:25;;;;;;;7.47;3.50;;;;;;;15.90;87.41;100365.47;5010598;28;20836;-58
2023/06/11 01:49:55;;;;;;;13.27;4.37;;;;;;;15.89;87.88;100355.81;5002158;28;20333;-56
2023/06/11 01:52:26;;;;;;;8.33;3.80;;;;;;;15.79;87.49;100366.75;5020764;28;20842;-58
2023/06/11 01:54:57;;;;;;;7.57;3.70;;;;;;;15.74;88.25;100359.88;4998796;28;20284;-57
2023/06/11 01:57:27;;;;;;;8.93;4.13;;;;;;;15.77;88.87;100355.41;4996052;28;20308;-58
2023/06/11 02:00:00;;;;;;;10.40;3.70;;;;;;;15.69;88.37;100353.03;5014316;28;20291;-58
2023/06/11 02:02:31;;;;;;;10.63;4.00;;;;;;;15.48;88.64;100334.44;5055876;28;20818;-57
2023/06/11 02:05:02;;;;;;;10.67;3.67;;;;;;;15.51;88.86;100358.03;5059553;28;20902;-58
2023/06/11 02:07:32;;;;;;;7.10;4.60;;;;;;;15.48;89.51;100346.78;5050365;28;20286;-59
2023/06/11 02:10:03;;;;;;;8.20;4.53;;;;;;;15.46;89.84;100349.44;5059534;28;21433;-57
2023/06/11 02:12:34;;;;;;;10.17;4.77;;;;;;;15.45;90.16;100357.38;5049560;28;20321;-57
2023/06/11 02:15:07;;;;;;;60.10;30.03;;;;;;;15.02;90.82;100269.38;5059685;28;20758;-57
2023/06/11 02:17:39;;;;;;;10.50;4.90;;;;;;;15.52;91.10;100341.34;5049513;28;20340;-58
2023/06/11 02:20:12;;;;;;;11.30;4.80;;;;;;;15.65;91.47;100341.75;5059216;28;20293;-57
2023/06/11 02:22:42;;;;;;;9.50;5.03;;;;;;;15.78;90.73;100329.03;5048895;28;20282;-57
2023/06/11 02:25:13;;;;;;;8.83;3.50;;;;;;;15.77;89.46;100316.75;5059237;28;20282;-58
2023/06/11 02:27:43;;;;;;;7.07;3.23;;;;;;;15.95;89.81;100334.53;5049226;28;20282;-57
2023/06/11 02:30:16;;;;;;;5.47;2.97;;;;;;;16.07;89.10;100334.97;5059808;28;20308;-57
2023/06/11 02:32:47;;;;;;;9.70;3.70;;;;;;;15.89;88.74;100289.94;5049333;28;20290;-58
2023/06/11 02:35:17;;;;;;;12.03;3.10;;;;;;;16.20;88.24;100312.50;5059105;28;20620;-57
2023/06/11 02:37:48;;;;;;;7.57;2.80;;;;;;;16.23;87.87;100312.38;5048651;28;21128;-58
2023/06/11 02:40:19;;;;;;;7.10;5.37;;;;;;;16.39;88.60;100316.13;5058779;28;20274;-58
2023/06/11 02:42:49;;;;;;;6.50;4.13;;;;;;;16.60;88.15;100308.31;5048403;28;20289;-57
2023/06/11 02:45:25;;;;;;;9.60;3.83;;;;;;;16.75;87.30;100306.81;5059961;28;20343;-57
2023/06/11 02:47:56;;;;;;;4.47;2.60;;;;;;;16.84;86.23;100295.88;5048175;28;20278;-57
2023/06/11 02:50:26;;;;;;;6.50;3.33;;;;;;;16.97;85.83;100312.06;5058737;28;20297;-57
2023/06/11 02:52:57;;;;;;;7.83;3.57;;;;;;;16.91;85.23;100317.63;5038542;28;20287;-57
2023/06/11 02:55:28;;;;;;;8.27;3.10;;;;;;;16.94;86.24;100312.19;5043018;28;20347;-57
2023/06/11 02:57:58;;;;;;;5.50;3.13;;;;;;;16.93;85.12;100315.78;5040104;28;20289;-56
2023/06/11 03:00:30;;;;;;;6.43;3.10;;;;;;;16.90;85.61;100311.47;5058621;28;20278;-58
2023/06/11 03:03:01;;;;;;;13.93;5.40;;;;;;;16.77;85.16;100316.38;5045866;28;20285;-58
2023/06/11 03:05:32;;;;;;;7.23;3.23;;;;;;;16.72;85.47;100322.75;5049840;28;20301;-57
2023/06/11 03:08:02;;;;;;;7.50;3.50;;;;;;;16.75;86.24;100312.94;5057699;28;20339;-57
2023/06/11 03:10:33;;;;;;;8.63;2.87;;;;;;;16.74;85.99;100316.47;5046035;28;20284;-58
2023/06/11 03:13:04;;;;;;;9.57;4.00;;;;;;;16.57;85.84;100303.13;5057517;28;20363;-57
2023/06/11 03:15:36;;;;;;;7.97;3.43;;;;;;;16.67;86.48;100325.56;5047493;28;20860;-57
2023/06/11 03:18:07;;;;;;;6.63;3.60;;;;;;;16.65;87.18;100327.44;5057733;28;20391;-57
2023/06/11 03:20:38;;;;;;;13.53;4.60;;;;;;;16.52;86.90;100320.91;5046673;28;20287;-58
2023/06/11 03:23:12;;;;;;;11.63;4.50;;;;;;;16.44;87.20;100318.59;5058665;28;20339;-57
2023/06/11 03:25:43;;;;;;;14.70;4.93;;;;;;;16.42;88.06;100320.41;5050638;28;20297;-58
2023/06/11 03:28:13;;;;;;;10.43;4.30;;;;;;;16.31;87.49;100312.94;5061192;28;20985;-57
2023/06/11 03:30:46;;;;;;;8.63;3.80;;;;;;;16.21;88.41;100311.59;5051115;28;20421;-57
2023/06/11 03:33:16;;;;;;;11.27;3.93;;;;;;;16.20;88.97;100317.78;5061817;28;20355;-58
2023/06/11 03:35:47;;;;;;;9.97;4.43;;;;;;;16.18;89.08;100322.25;5051042;28;20290;-57
2023/06/11 03:38:17;;;;;;;10.80;3.73;;;;;;;16.06;89.04;100306.91;5061279;28;20357;-56
2023/06/11 03:40:48;;;;;;;15.90;4.87;;;;;;;16.02;88.85;100323.75;5050322;28;20300;-57
2023/06/11 03:43:19;;;;;;;12.27;4.43;;;;;;;15.99;89.91;100326.50;5061363;28;20313;-58
2023/06/11 03:45:51;;;;;;;9.57;3.73;;;;;;;15.95;90.16;100326.63;5050425;28;20365;-57
2023/06/11 03:48:22;;;;;;;9.17;3.33;;;;;;;15.92;90.13;100334.63;5061527;28;20740;-58
2023/06/11 03:50:52;;;;;;;10.50;5.40;;;;;;;15.77;90.32;100337.84;5049834;28;20332;-57
2023/06/11 03:53:23;;;;;;;9.60;6.33;;;;;;;15.64;91.47;100331.28;5060926;28;20329;-57
2023/06/11 03:55:54;;;;;;;12.47;5.03;;;;;;;15.54;92.40;100331.59;5050230;28;20290;-57
2023/06/11 03:58:24;;;;;;;11.93;6.20;;;;;;;15.62;93.18;100328.69;5059911;28;20365;-57
2023/06/11 04:00:57;;;;;;;20.10;9.18;;;;;;;15.81;93.24;100323.63;4972878;28;2197493;-58
2023/06/11 04:03:27;;;;;;;13.77;6.70;;;;;;;15.93;93.08;100307.38;5062028;28;20457;-58
2023/06/11 04:05:58;;;;;;;4.17;2.20;;;;;;;16.27;91.72;100323.66;5049732;28;20383;-57
2023/06/11 04:08:29;;;;;;;8.00;2.93;;;;;;;16.50;91.02;100317.47;5061123;28;20282;-57
2023/06/11 04:10:59;;;;;;;12.50;2.67;;;;;;;16.55;89.55;100315.53;5050394;28;20290;-57
2023/06/11 04:13:30;;;;;;;3.23;2.30;;;;;;;16.72;88.74;100323.59;5061355;28;20365;-58
2023/06/11 04:16:02;;;;;;;8.50;3.07;;;;;;;16.81;89.40;100320.63;5033192;28;20282;-57
2023/06/11 04:18:35;;;;;;;2.87;1.87;;;;;;;16.93;88.00;100321.06;5030699;28;20315;-58
2023/06/11 04:21:06;;;;;;;5.40;1.93;;;;;;;16.88;87.96;100312.47;5060778;28;20377;-58
2023/06/11 04:23:37;;;;;;;4.90;1.70;;;;;;;16.97;87.34;100314.72;5051007;28;20296;-57
2023/06/11 04:26:08;;;;;;;4.90;1.83;;;;;;;17.00;86.62;100312.81;5061797;28;20270;-57
2023/06/11 04:28:38;;;;;;;3.03;1.70;;;;;;;17.32;86.64;100307.06;5051652;28;20291;-59
2023/06/11 04:31:11;;;;;;;2.90;1.70;;;;;;;17.56;86.74;100299.84;5061214;28;20328;-58
2023/06/11 04:33:42;;;;;;;6.70;1.80;;;;;;;17.60;84.87;100265.31;5050946;28;20294;-58
2023/06/11 04:36:13;;;;;;;2.77;1.73;;;;;;;17.91;84.40;100282.41;5061469;28;20719;-56
2023/06/11 04:38:44;;;;;;;3.30;1.90;;;;;;;18.04;83.13;100286.19;5051527;28;20403;-57
2023/06/11 04:41:15;;;;;;;9.20;1.40;;;;;;;17.99;81.45;100274.97;5061523;28;20827;-58
2023/06/11 04:43:46;;;;;;;2.37;1.40;;;;;;;18.01;80.84;100254.63;5050963;28;20282;-57
2023/06/11 04:46:18;;;;;;;1.90;1.30;;;;;;;18.46;81.13;100265.69;5061382;28;20290;-58
2023/06/11 04:48:50;;;;;;;6.33;1.30;;;;;;;18.79;80.13;100263.19;5051695;28;20367;-57
2023/06/11 04:51:23;;;;;;;2.80;1.37;;;;;;;18.90;78.52;100260.88;5060973;28;20369;-57
2023/06/11 04:53:54;;;;;;;2.17;1.57;;;;;;;19.08;77.71;100260.88;5049764;28;20278;-58
2023/06/11 04:56:25;;;;;;;3.03;1.20;;;;;;;19.05;75.40;100255.72;5060873;28;20290;-56
2023/06/11 04:58:55;;;;;;;2.87;1.40;;;;;;;19.16;76.45;100256.03;5049927;28;20293;-57
2023/06/11 05:01:32;;;;;;;5.83;1.43;;;;;;;19.14;76.13;100260.53;5060498;28;20317;-57
2023/06/11 05:04:03;;;;;;;4.10;1.87;;;;;;;19.17;76.09;100249.81;5031043;28;20279;-56
2023/06/11 05:06:33;;;;;;;3.70;2.47;;;;;;;19.23;75.85;100267.16;5042129;28;20329;-57
2023/06/11 05:09:04;;;;;;;8.87;2.00;;;;;;;19.25;76.01;100271.44;5050864;28;20355;-58
2023/06/11 05:11:35;;;;;;;4.13;2.90;;;;;;;19.16;74.16;100271.91;5040384;28;20306;-57
2023/06/11 05:14:05;;;;;;;2.83;2.03;;;;;;;19.03;73.94;100284.09;5051256;28;20306;-57
2023/06/11 05:16:41;;;;;;;3.60;1.77;;;;;;;18.78;75.08;100280.03;5040488;28;20283;-58
2023/06/11 05:19:11;;;;;;;6.23;4.97;;;;;;;18.74;76.99;100291.66;5051137;28;20344;-58
2023/06/11 05:21:42;;;;;;;4.23;2.80;;;;;;;18.81;77.21;100285.16;5040996;28;20282;-58
2023/06/11 05:24:19;;;;;;;6.43;2.70;;;;;;;18.84;76.95;100292.94;5051281;28;20294;-58
2023/06/11 05:26:56;;;;;;;3.50;1.30;;;;;;;18.71;75.21;100275.94;5040455;28;20284;-58
2023/06/11 05:29:27;;;;;;;6.07;1.40;;;;;;;18.86;76.07;100283.13;5050271;28;20286;-59
2023/06/11 05:32:00;;;;;;;2.73;0.63;;;;;;;18.92;71.06;100269.59;5049092;28;20286;-59
2023/06/11 05:34:32;;;;;;;5.17;1.07;;;;;;;18.75;70.81;100257.22;5058346;28;20281;-59
2023/06/11 05:37:03;;;;;;;4.97;0.80;;;;;;;18.53;69.62;100252.09;5059811;28;20301;-58
2023/06/11 05:39:34;;;;;;;2.13;0.90;;;;;;;18.34;71.12;100251.28;5049581;28;20286;-56
2023/06/11 05:42:04;;;;;;;2.10;0.80;;;;;;;18.32;71.07;100263.72;5060038;28;20392;-57
2023/06/11 05:44:35;;;;;;;3.43;0.70;;;;;;;18.46;72.85;100252.47;5049592;28;20326;-58
2023/06/11 05:47:07;;;;;;;0.87;0.80;;;;;;;18.62;72.39;100252.56;5058739;28;21566;-58
2023/06/11 05:49:38;;;;;;;1.47;0.80;;;;;;;18.85;73.00;100247.00;5049166;28;20768;-58
2023/06/11 05:52:09;;;;;;;1.33;1.00;;;;;;;18.88;71.65;100230.97;5058792;28;20298;-59
2023/06/11 05:54:40;;;;;;;0.70;0.60;;;;;;;18.95;68.96;100231.53;5047882;28;20297;-58
2023/06/11 05:57:19;;;;;;;2.77;0.70;;;;;;;18.97;67.45;100208.47;5059099;28;20289;-57
2023/06/11 05:59:50;;;;;;;3.23;1.40;;;;;;;19.18;68.13;100222.38;5048686;28;21026;-58
2023/06/11 06:02:23;;;;;;;3.13;1.40;;;;;;;19.35;69.18;100224.97;5059621;28;20430;-58
2023/06/11 06:04:54;;;;;;;0.63;0.50;;;;;;;19.64;69.44;100229.63;5048966;28;20775;-55
2023/06/11 06:07:29;;;;;;;5.27;0.53;;;;;;;19.75;69.69;100233.44;5059111;28;20760;-58
2023/06/11 06:09:59;;;;;;;11.83;2.03;;;;;;;19.76;69.12;100235.16;5019577;28;20378;-57
2023/06/11 06:12:30;;;;;;;4.13;1.93;;;;;;;19.26;66.41;100233.41;5039831;28;20389;-57
2023/06/11 06:15:00;;;;;;;3.70;0.60;;;;;;;18.82;67.28;100235.72;5037316;28;20680;-58
2023/06/11 06:17:33;;;;;;;3.50;2.13;;;;;;;18.66;70.04;100240.91;5046034;28;20288;-59
2023/06/11 06:20:04;;;;;;;1.63;1.30;;;;;;;18.73;71.29;100240.50;5049743;28;20275;-59
2023/06/11 06:22:34;;;;;;;3.87;0.73;;;;;;;18.86;70.79;100248.72;5039770;28;20278;-58
2023/06/11 06:25:06;;;;;;;5.60;1.27;;;;;;;18.68;69.90;100244.34;5049518;28;20340;-57
2023/06/11 06:27:37;;;;;;;0.50;0.47;;;;;;;18.79;69.21;100265.84;5040346;28;20393;-58
2023/06/11 06:30:08;;;;;;;2.33;0.53;;;;;;;18.91;69.19;100251.97;5049854;28;21011;-57
2023/06/11 06:32:41;;;;;;;2.17;0.53;;;;;;;19.10;68.77;100230.72;5039838;28;20635;-59
2023/06/11 06:35:12;;;;;;;2.47;0.33;;;;;;;19.29;66.16;100227.94;5049602;28;20290;-58
2023/06/11 06:37:42;;;;;;;6.97;1.37;;;;;;;19.37;67.90;100216.97;5039491;28;20274;-58
2023/06/11 06:40:13;;;;;;;4.33;0.70;;;;;;;19.44;65.88;100228.06;5049864;28;20311;-59
2023/06/11 06:42:44;;;;;;;0.93;0.50;;;;;;;19.53;64.98;100227.56;5040730;28;20850;-58
2023/06/11 06:45:15;;;;;;;4.83;2.83;;;;;;;19.14;64.96;100226.09;5046614;28;20307;-57
2023/06/11 06:47:47;;;;;;;3.83;2.10;;;;;;;18.89;65.27;100227.38;5039428;28;20312;-58
2023/06/11 06:50:18;;;;;;;0.60;0.40;;;;;;;18.82;66.19;100236.59;5048834;28;20760;-57
2023/06/11 06:52:48;;;;;;;0.57;0.40;;;;;;;18.84;67.77;100234.69;5038446;28;20287;-57
2023/06/11 06:55:19;;;;;;;5.17;0.70;;;;;;;18.82;66.19;100226.00;5048114;28;20335;-57
2023/06/11 06:57:50;;;;;;;1.80;1.20;;;;;;;18.90;65.70;100218.50;5038153;28;20298;-56
2023/06/11 07:00:21;;;;;;;5.97;2.97;;;;;;;18.92;66.05;100221.06;5049716;28;20665;-58
2023/06/11 07:02:53;;;;;;;1.70;0.40;;;;;;;18.90;66.70;100234.41;5043806;28;20831;-58
2023/06/11 07:05:23;;;;;;;2.93;0.70;;;;;;;19.24;67.68;100237.91;5058503;28;20317;-59
2023/06/11 07:07:54;;;;;;;1.73;0.40;;;;;;;19.30;68.05;100240.25;5048330;28;20297;-58
2023/06/11 07:10:25;;;;;;;1.70;0.40;;;;;;;19.08;66.54;100229.09;5057816;28;20336;-58
2023/06/11 07:12:55;;;;;;;6.87;1.10;;;;;;;18.74;67.03;100230.78;5047358;28;20293;-57
2023/06/11 07:15:29;;;;;;;1.37;1.00;;;;;;;18.72;68.38;100230.00;5059047;28;20346;-58
2023/06/11 07:18:01;;;;;;;4.07;1.80;;;;;;;18.59;68.36;100191.84;5047692;28;20381;-58
2023/06/11 07:20:32;;;;;;;16.97;5.97;;;;;;;18.80;68.31;100227.88;5049656;28;20347;-58
2023/06/11 07:23:02;;;;;;;5.03;2.93;;;;;;;18.75;66.12;100229.84;5058506;28;20278;-58
2023/06/11 07:25:33;;;;;;;6.17;2.13;;;;;;;18.51;67.08;100169.28;5047608;28;20331;-58
2023/06/11 07:28:04;;;;;;;13.10;2.60;;;;;;;18.85;67.48;100220.53;5058435;28;20282;-58
2023/06/11 07:30:38;;;;;;;67.80;11.67;;;;;;;18.96;67.68;100235.88;5048664;28;20282;-60
2023/06/11 07:33:10;;;;;;;2.07;1.00;;;;;;;18.90;66.21;100231.75;5057940;28;20293;-59
2023/06/11 07:35:40;;;;;;;13.07;1.50;;;;;;;18.92;68.36;100232.53;5047982;28;20314;-58
2023/06/11 07:38:11;;;;;;;1.23;0.70;;;;;;;19.09;68.39;100228.13;5058190;28;20282;-57
2023/06/11 07:40:42;;;;;;;2.53;1.47;;;;;;;19.04;66.43;100235.47;5047985;28;20351;-59
2023/06/11 07:43:12;;;;;;;12.97;1.80;;;;;;;18.89;67.61;100227.38;5057520;28;20756;-59
2023/06/11 07:45:43;;;;;;;6.83;0.80;;;;;;;18.82;66.80;100231.28;5039221;28;20298;-59
2023/06/11 07:48:15;;;;;;;15.33;1.30;;;;;;;18.53;67.59;100188.59;5037725;28;20351;-59
2023/06/11 07:50:48;;;;;;;0.70;0.50;;;;;;;18.89;66.87;100231.81;5044314;28;20375;-59
2023/06/11 07:53:21;;;;;;;2.40;0.53;;;;;;;18.81;67.54;100229.56;5058090;28;20328;-58
2023/06/11 07:55:56;;;;;;;1.80;1.10;;;;;;;18.78;67.80;100219.13;5047295;28;20272;-58
2023/06/11 07:58:27;;;;;;;7.30;0.80;;;;;;;18.80;67.57;100227.88;5058129;28;20286;-58
2023/06/11 08:00:57;;;;;;;4.00;2.13;;;;;;;18.87;66.68;100234.56;5047020;28;21540;-58
2023/06/11 08:03:30;;;;;;;2.47;1.40;;;;;;;18.79;67.38;100226.13;5058494;28;20283;-58
2023/06/11 08:06:00;;;;;;;2.37;0.53;;;;;;;18.87;67.98;100228.38;5047076;28;20282;-58
2023/06/11 08:08:31;;;;;;;4.67;1.10;;;;;;;18.67;66.83;100232.00;5052236;28;20293;-58
2023/06/11 08:11:02;;;;;;;4.20;1.83;;;;;;;18.57;68.25;100225.47;5061306;28;20297;-58
2023/06/11 08:13:34;;;;;;;10.70;1.63;;;;;;;18.70;69.09;100216.84;5051585;28;20375;-58
2023/06/11 08:16:05;;;;;;;4.57;0.70;;;;;;;18.70;67.49;100216.84;5061297;28;20289;-58
2023/06/11 08:18:37;;;;;;;5.70;2.40;;;;;;;18.77;69.08;100217.44;5051048;28;20282;-57
2023/06/11 08:21:11;;;;;;;9.20;2.03;;;;;;;18.93;68.47;100220.16;5061093;28;20297;-57
2023/06/11 08:23:41;;;;;;;14.97;2.13;;;;;;;18.85;68.13;100193.22;5050506;28;20407;-60
2023/06/11 08:26:12;;;;;;;1.77;1.20;;;;;;;18.98;67.37;100211.97;5060988;28;20384;-59
2023/06/11 08:28:42;;;;;;;2.50;2.10;;;;;;;19.03;67.33;100213.44;5050678;28;20807;-59
2023/06/11 08:31:14;;;;;;;2.73;2.17;;;;;;;19.07;67.45;100224.72;5060778;28;20663;-58
2023/06/11 08:33:47;;;;;;;3.50;2.73;;;;;;;19.07;67.85;100224.72;5051664;28;20343;-58
2023/06/11 08:36:17;;;;;;;4.23;1.00;;;;;;;19.08;67.02;100226.44;5062048;28;20332;-58
2023/06/11 08:38:48;;;;;;;4.50;1.57;;;;;;;18.95;67.16;100197.94;5049691;28;20304;-57
2023/06/11 08:41:19;;;;;;;1.00;0.83;;;;;;;19.14;67.68;100220.81;5060903;28;21023;-58
2023/06/11 08:43:49;;;;;;;3.30;1.70;;;;;;;19.13;67.04;100224.41;5050486;28;20296;-58
2023/06/11 08:46:23;;;;;;;13.30;1.47;;;;;;;19.09;67.21;100212.25;5060696;28;20286;-59
2023/06/11 08:49:00;;;;;;;2.97;0.90;;;;;;;18.94;67.07;100188.28;5049430;28;20422;-58
2023/06/11 08:51:36;;;;;;;1.23;0.50;;;;;;;18.92;66.01;100205.19;5058766;28;20293;-59
2023/06/11 08:54:08;;;;;;;0.60;0.50;;;;;;;18.87;66.43;100212.50;5060141;28;20317;-59
2023/06/11 08:56:40;;;;;;;4.97;1.80;;;;;;;18.91;66.72;100209.63;5049819;28;20322;-59
2023/06/11 08:59:11;;;;;;;2.77;1.40;;;;;;;18.90;66.77;100212.38;5060655;28;20869;-59
2023/06/11 09:01:41;;;;;;;1.90;1.50;;;;;;;18.90;67.06;100197.34;5049736;28;20695;-58
2023/06/11 09:04:15;;;;;;;0.97;0.83;;;;;;;18.91;66.78;100204.31;5060639;28;20308;-59
2023/06/11 09:06:51;;;;;;;9.20;2.47;;;;;;;18.90;66.79;100207.91;5050510;28;20321;-58
2023/06/11 09:09:25;;;;;;;17.00;2.40;;;;;;;18.84;66.05;100208.22;5059509;28;20289;-60
2023/06/11 09:11:56;;;;;;;3.10;0.80;;;;;;;18.78;66.26;100207.69;5049237;28;20610;-58
2023/06/11 09:14:36;;;;;;;21.67;2.67;;;;;;;18.70;66.58;100189.53;5060475;28;20385;-58
2023/06/11 09:17:08;;;;;;;5.30;1.23;;;;;;;18.69;66.60;100201.03;5049533;28;20313;-58
2023/06/11 09:19:45;;;;;;;1.43;0.70;;;;;;;18.61;66.56;100195.28;5049228;28;20346;-59
2023/06/11 09:22:29;;;;;;;10.73;6.03;;;;;;;18.51;67.13;100189.59;5059784;28;20301;-58
2023/06/11 09:25:05;;;;;;;5.27;1.00;;;;;;;18.39;67.13;100191.06;5049425;28;20290;-58
2023/06/11 09:27:36;;;;;;;4.03;0.93;;;;;;;18.39;67.79;100191.06;5050088;28;20282;-58
2023/06/11 09:30:17;;;;;;;2.77;1.33;;;;;;;18.41;68.09;100205.06;5060159;28;20282;-59
2023/06/11 09:32:50;;;;;;;5.20;1.50;;;;;;;18.40;68.27;100187.50;5049114;28;20290;-58
2023/06/11 09:35:23;;;;;;;3.10;1.00;;;;;;;18.39;68.32;100191.06;5059700;28;20300;-58
2023/06/11 09:37:54;;;;;;;1.53;0.70;;;;;;;18.36;67.91;100185.09;5049455;28;20332;-59
2023/06/11 09:40:25;;;;;;;12.70;1.40;;;;;;;18.10;67.83;100148.41;5059372;28;20274;-59
2023/06/11 09:42:56;;;;;;;8.37;1.30;;;;;;;18.28;68.22;100188.13;5049461;28;20274;-59
2023/06/11 09:45:27;;;;;;;13.50;3.23;;;;;;;18.14;68.61;100175.56;5060447;28;20290;-59
2023/06/11 09:47:58;;;;;;;9.07;2.90;;;;;;;18.13;69.72;100183.59;5029764;28;20369;-58
2023/06/11 09:50:35;;;;;;;25.27;4.70;;;;;;;17.85;70.00;100126.78;5040010;28;20298;-58
2023/06/11 09:53:05;;;;;;;17.67;2.53;;;;;;;18.04;70.40;100169.84;5040256;28;20281;-60
2023/06/11 09:55:36;;;;;;;12.07;1.67;;;;;;;17.93;70.70;100169.53;5039725;28;20388;-59
2023/06/11 09:58:10;;;;;;;2.97;0.90;;;;;;;17.76;71.29;100174.75;5050582;28;20745;-58
2023/06/11 10:00:43;;;;;;;6.20;1.10;;;;;;;17.48;71.94;100157.53;5040747;28;20811;-59
2023/06/11 10:03:21;;;;;;;2.40;0.70;;;;;;;17.27;72.91;100161.16;5050181;28;20444;-59
2023/06/11 10:05:57;;;;;;;13.20;1.90;;;;;;;16.97;73.77;100165.13;5039479;28;20301;-60
2023/06/11 10:08:32;;;;;;;8.93;2.00;;;;;;;16.32;75.13;100102.84;5050060;28;20470;-58
2023/06/11 10:11:04;;;;;;;8.13;2.40;;;;;;;16.27;76.88;100161.03;5039009;28;20378;-60
2023/06/11 10:13:42;;;;;;;24.60;3.17;;;;;;;15.99;78.21;100158.69;5039569;28;20320;-59
2023/06/11 10:16:14;;;;;;;12.87;3.17;;;;;;;15.70;79.68;100162.47;5049841;28;20336;-58
2023/06/11 10:18:44;;;;;;;9.00;1.87;;;;;;;15.45;80.91;100163.41;5040454;28;21025;-59
2023/06/11 10:21:18;;;;;;;9.50;1.93;;;;;;;15.27;82.09;100179.88;5050036;28;20360;-58
2023/06/11 10:23:54;;;;;;;7.27;2.37;;;;;;;14.61;83.42;100096.31;5039600;28;20709;-59
2023/06/11 10:26:35;;;;;;;11.77;2.43;;;;;;;14.92;84.58;100189.06;5050234;28;20325;-59
2023/06/11 10:29:15;;;;;;;8.70;1.83;;;;;;;14.72;85.46;100181.88;5039547;28;20411;-59
2023/06/11 10:31:58;;;;;;;7.63;1.60;;;;;;;14.31;86.20;100145.53;5038528;28;20124;-60
2023/06/11 10:34:40;;;;;;;3.47;1.30;;;;;;;14.38;87.16;100188.25;5049447;28;20594;-58
2023/06/11 10:37:13;;;;;;;11.67;3.90;;;;;;;14.27;88.01;100177.22;5039021;28;20286;-57
2023/06/11 10:39:51;;;;;;;19.47;7.43;;;;;;;14.24;88.46;100202.69;5029394;28;20290;-60
2023/06/11 10:42:26;;;;;;;18.23;10.60;;;;;;;14.13;88.89;100204.81;5038277;28;20764;-60
2023/06/11 10:45:00;;;;;;;12.43;6.73;;;;;;;13.97;89.02;100187.81;5028632;28;20287;-59
2023/06/11 10:47:43;;;;;;;11.67;3.40;;;;;;;13.76;89.78;100190.19;5023245;28;20283;-58
2023/06/11 10:50:25;;;;;;;16.70;2.93;;;;;;;13.46;90.25;100159.63;5038380;28;20293;-58
2023/06/11 10:52:59;;;;;;;8.97;2.40;;;;;;;13.33;90.63;100160.00;5030360;28;20271;-59
2023/06/11 10:55:30;;;;;;;6.37;2.23;;;;;;;13.68;90.93;100234.22;5036324;28;20291;-58
2023/06/11 10:58:02;;;;;;;4.73;2.27;;;;;;;13.42;91.78;100220.97;5040515;28;20313;-58
2023/06/11 11:00:42;;;;;;;7.63;2.00;;;;;;;13.52;92.30;100238.19;5048378;28;20309;-59
2023/06/11 11:03:14;;;;;;;5.03;1.97;;;;;;;13.49;92.44;100238.28;5055641;28;20938;-59
2023/06/11 11:05:45;;;;;;;9.07;2.13;;;;;;;13.40;92.67;100244.63;5047429;28;20309;-59
2023/06/11 11:08:18;;;;;;;5.77;2.07;;;;;;;13.34;93.10;100250.94;5058457;28;20297;-59
2023/06/11 11:11:06;;;;;;;5.37;1.83;;;;;;;13.04;93.31;100220.25;5028504;28;20733;-59
2023/06/11 11:13:41;;;;;;;5.33;1.90;;;;;;;13.20;93.43;100255.66;5029632;28;20298;-60
2023/06/11 11:16:16;;;;;;;5.03;1.73;;;;;;;13.11;93.82;100253.31;5038133;28;20601;-59
2023/06/11 11:18:48;;;;;;;2.67;1.70;;;;;;;13.00;94.06;100260.59;5028092;28;20657;-60
2023/06/11 11:21:31;;;;;;;2.63;1.70;;;;;;;13.06;94.50;100276.19;5032175;28;20059;-60
2023/06/11 11:24:21;;;;;;;6.17;4.20;;;;;;;13.02;94.94;100280.63;5027968;28;20615;-57
2023/06/11 11:26:59;;;;;;;6.37;4.50;;;;;;;13.00;94.93;100286.81;5027316;28;20279;-59
2023/06/11 11:29:37;;;;;;;6.75;4.63;;;;;;;12.86;94.84;100274.91;5027470;28;20487;-59
2023/06/11 11:36:21;;;;;;;2.92;2.17;;;;;;;12.87;95.40;100302.00;5018617;28;20307;-59
2023/06/11 11:38:52;;;;;;;2.00;1.70;;;;;;;12.82;95.37;100304.72;5035971;28;20050;-59
2023/06/11 11:41:26;;;;;;;4.30;1.60;;;;;;;12.74;95.55;100296.22;5048941;28;20053;-58
2023/06/11 11:43:58;;;;;;;3.65;1.65;;;;;;;12.73;95.62;100299.75;5048460;28;20093;-59
2023/06/11 11:46:33;;;;;;;2.65;1.30;;;;;;;12.20;95.71;100221.50;5052122;28;20052;-59
2023/06/11 11:49:05;;;;;;;1.80;1.20;;;;;;;12.66;96.09;100295.53;5062173;28;20052;-60
2023/06/11 11:51:41;;;;;;;1.77;1.33;;;;;;;12.65;96.57;100296.41;5051794;28;20059;-58
2023/06/11 11:54:15;;;;;;;3.08;1.23;;;;;;;12.51;96.77;100281.91;5062250;28;20055;-58